createdAt,value
2023-04-29T00:00:06.809Z,65.97
2023-04-29T00:01:15.475Z,66.08
2023-04-29T00:02:17.448Z,65.90
2023-04-29T00:03:20.636Z,65.73
2023-04-29T00:04:22.756Z,65.91
2023-04-29T00:05:25.782Z,66.23
2023-04-29T00:06:29.382Z,66.06
2023-04-29T00:07:31.783Z,66.03
2023-04-29T00:08:34.573Z,65.78
2023-04-29T00:09:37.598Z,66.24
2023-04-29T00:10:41.722Z,66.14
2023-04-29T00:11:43.515Z,66.20
2023-04-29T00:12:46.309Z,66.51
2023-04-29T00:13:48.104Z,66.54
2023-04-29T00:14:50.864Z,66.75
2023-04-29T00:15:52.689Z,66.96
2023-04-29T00:16:55.458Z,67.04
2023-04-29T00:17:57.295Z,67.23
2023-04-29T00:19:00.575Z,67.45
2023-04-29T00:20:04.174Z,67.66
2023-04-29T00:21:06.999Z,67.47
2023-04-29T00:22:09.157Z,67.28
2023-04-29T00:23:11.974Z,67.34
2023-04-29T00:24:14.043Z,67.31
2023-04-29T00:25:17.095Z,67.45
2023-04-29T00:26:20.208Z,67.58
2023-04-29T00:27:24.859Z,67.72
2023-04-29T00:28:27.133Z,67.62
2023-04-29T00:29:29.934Z,67.33
2023-04-29T00:30:32.635Z,67.44
2023-04-29T00:31:35.523Z,67.53
2023-04-29T00:32:37.490Z,67.20
2023-04-29T00:33:40.838Z,67.17
2023-04-29T00:34:42.769Z,67.04
2023-04-29T00:35:45.696Z,66.80
2023-04-29T00:36:48.524Z,67.16
2023-04-29T00:37:51.287Z,66.66
2023-04-29T00:38:53.072Z,66.69
2023-04-29T00:39:55.796Z,66.68
2023-04-29T00:40:57.743Z,66.36
2023-04-29T00:42:03.382Z,66.43
2023-04-29T00:43:05.142Z,66.34
2023-04-29T00:44:08.163Z,66.14
2023-04-29T00:45:11.468Z,66.20
2023-04-29T00:46:14.260Z,66.31
2023-04-29T00:47:16.112Z,65.66
2023-04-29T00:48:18.907Z,65.79
2023-04-29T00:49:20.675Z,65.91
2023-04-29T00:50:23.730Z,65.78
2023-04-29T00:51:25.645Z,66.11
2023-04-29T00:52:30.312Z,65.44
2023-04-29T00:53:32.836Z,65.54
2023-04-29T00:54:36.132Z,65.82
2023-04-29T00:55:38.362Z,66.18
2023-04-29T00:56:42.586Z,66.02
2023-04-29T00:57:48.133Z,66.00
2023-04-29T00:58:52.479Z,65.68
2023-04-29T00:59:54.642Z,66.25
2023-04-29T01:00:57.827Z,66.26
2023-04-29T01:02:00.611Z,65.81
2023-04-29T01:03:04.180Z,65.52
2023-04-29T01:04:06.472Z,65.39
2023-04-29T01:05:09.684Z,65.57
2023-04-29T01:06:21.233Z,65.06
2023-04-29T01:07:30.681Z,64.98
2023-04-29T01:08:39.765Z,64.75
2023-04-29T01:09:54.196Z,65.06
2023-04-29T01:11:01.995Z,64.81
2023-04-29T01:12:11.899Z,65.09
2023-04-29T01:13:21.335Z,65.38
2023-04-29T01:14:25.892Z,65.16
2023-04-29T01:15:31.720Z,65.40
2023-04-29T01:16:38.027Z,65.12
2023-04-29T01:17:52.008Z,65.99
2023-04-29T01:18:56.337Z,65.48
2023-04-29T01:20:05.983Z,66.02
2023-04-29T01:21:08.073Z,65.88
2023-04-29T01:22:11.531Z,66.31
2023-04-29T01:23:13.467Z,65.89
2023-04-29T01:24:19.080Z,66.77
2023-04-29T01:25:23.631Z,66.70
2023-04-29T01:26:46.698Z,66.92
2023-04-29T01:28:04.029Z,66.23
2023-04-29T01:29:18.994Z,66.81
2023-04-29T01:30:29.486Z,66.23
2023-04-29T01:31:35.781Z,66.27
2023-04-29T01:32:45.851Z,66.30
2023-04-29T01:33:51.349Z,67.00
2023-04-29T01:35:00.632Z,66.91
2023-04-29T01:36:10.511Z,67.42
2023-04-29T01:37:19.500Z,66.84
2023-04-29T01:38:31.052Z,66.65
2023-04-29T01:39:42.942Z,66.97
2023-04-29T01:40:49.604Z,66.83
2023-04-29T01:42:06.314Z,66.60
2023-04-29T01:43:11.756Z,66.87
2023-04-29T01:44:17.939Z,66.35
2023-04-29T01:45:21.627Z,66.72
2023-04-29T01:46:24.635Z,67.05
2023-04-29T01:47:30.819Z,67.12
2023-04-29T01:48:33.943Z,66.96
2023-04-29T01:49:36.239Z,66.74
2023-04-29T01:50:39.201Z,66.68
2023-04-29T01:51:46.442Z,66.76
2023-04-29T01:52:49.446Z,66.51
2023-04-29T01:53:51.599Z,66.11
2023-04-29T01:54:56.485Z,65.91
2023-04-29T01:56:00.940Z,66.29
2023-04-29T01:57:19.337Z,66.33
2023-04-29T01:58:45.307Z,66.01
2023-04-29T02:00:07.782Z,66.14
2023-04-29T02:01:15.454Z,66.09
2023-04-29T02:02:21.238Z,66.01
2023-04-29T02:03:33.078Z,66.14
2023-04-29T02:04:37.753Z,66.54
2023-04-29T02:05:39.653Z,66.91
2023-04-29T02:06:42.847Z,66.74
2023-04-29T02:07:44.692Z,66.36
2023-04-29T02:08:49.044Z,65.90
2023-04-29T02:09:52.594Z,66.64
2023-04-29T02:10:57.813Z,66.38
2023-04-29T02:12:12.322Z,66.34
2023-04-29T02:13:15.036Z,66.60
2023-04-29T02:14:17.282Z,66.83
2023-04-29T02:15:20.213Z,66.74
2023-04-29T02:16:22.185Z,66.83
2023-04-29T02:17:37.814Z,67.12
2023-04-29T02:18:40.560Z,67.16
2023-04-29T02:19:43.286Z,67.28
2023-04-29T02:20:45.280Z,67.31
2023-04-29T02:21:48.037Z,67.57
2023-04-29T02:22:49.790Z,67.31
2023-04-29T02:23:54.351Z,67.39
2023-04-29T02:24:58.472Z,67.46
2023-04-29T02:26:03.938Z,67.35
2023-04-29T02:27:06.754Z,67.29
2023-04-29T02:28:09.964Z,66.55
2023-04-29T02:29:14.856Z,67.24
2023-04-29T02:30:19.469Z,67.42
2023-04-29T02:31:21.436Z,66.92
2023-04-29T02:32:24.911Z,66.89
2023-04-29T02:33:26.708Z,67.29
2023-04-29T02:34:29.496Z,66.52
2023-04-29T02:35:31.274Z,67.13
2023-04-29T02:36:34.042Z,66.76
2023-04-29T02:37:35.972Z,66.68
2023-04-29T02:38:38.697Z,67.15
2023-04-29T02:39:41.338Z,67.23
2023-04-29T02:40:44.711Z,67.33
2023-04-29T02:41:47.846Z,66.88
2023-04-29T02:42:50.760Z,67.19
2023-04-29T02:43:52.980Z,67.44
2023-04-29T02:44:56.102Z,67.96
2023-04-29T02:45:57.999Z,67.71
2023-04-29T02:47:01.157Z,67.39
2023-04-29T02:48:03.189Z,67.72
2023-04-29T02:49:06.050Z,67.83
2023-04-29T02:50:08.903Z,67.81
2023-04-29T02:51:11.780Z,68.19
2023-04-29T02:52:13.662Z,67.26
2023-04-29T02:53:16.447Z,67.72
2023-04-29T02:54:18.177Z,67.24
2023-04-29T02:55:21.551Z,67.30
2023-04-29T02:56:23.973Z,67.66
2023-04-29T02:57:29.575Z,67.53
2023-04-29T02:58:31.347Z,67.30
2023-04-29T02:59:34.348Z,67.40
2023-04-29T03:00:36.149Z,67.21
2023-04-29T03:01:39.909Z,67.52
2023-04-29T03:02:42.162Z,68.16
2023-04-29T03:03:45.310Z,68.44
2023-04-29T03:04:47.228Z,68.28
2023-04-29T03:05:50.279Z,67.79
2023-04-29T03:06:52.162Z,67.99
2023-04-29T03:07:54.918Z,67.55
2023-04-29T03:08:57.653Z,67.54
2023-04-29T03:10:00.571Z,68.10
2023-04-29T03:11:02.337Z,67.46
2023-04-29T03:12:08.357Z,67.85
2023-04-29T03:13:11.518Z,67.96
2023-04-29T03:14:15.344Z,67.51
2023-04-29T03:15:18.103Z,67.57
2023-04-29T03:16:22.042Z,68.00
2023-04-29T03:17:24.795Z,68.03
2023-04-29T03:18:26.745Z,67.75
2023-04-29T03:19:30.683Z,68.39
2023-04-29T03:20:32.709Z,68.14
2023-04-29T03:21:38.038Z,68.42
2023-04-29T03:22:39.979Z,67.95
2023-04-29T03:23:42.815Z,68.02
2023-04-29T03:24:48.127Z,68.09
2023-04-29T03:25:53.051Z,68.07
2023-04-29T03:26:54.837Z,68.01
2023-04-29T03:27:57.726Z,67.84
2023-04-29T03:29:00.977Z,68.51
2023-04-29T03:30:03.692Z,68.61
2023-04-29T03:31:05.874Z,68.48
2023-04-29T03:32:08.757Z,68.39
2023-04-29T03:33:10.642Z,68.77
2023-04-29T03:34:14.501Z,68.66
2023-04-29T03:35:22.400Z,69.05
2023-04-29T03:36:43.668Z,68.37
2023-04-29T03:37:46.520Z,68.15
2023-04-29T03:38:56.371Z,68.78
2023-04-29T03:39:58.197Z,68.58
2023-04-29T03:41:01.015Z,68.12
2023-04-29T03:42:03.083Z,68.73
2023-04-29T03:43:06.850Z,68.53
2023-04-29T03:44:10.136Z,68.01
2023-04-29T03:45:14.316Z,67.89
2023-04-29T03:46:16.807Z,68.18
2023-04-29T03:47:19.654Z,68.37
2023-04-29T03:48:21.617Z,68.53
2023-04-29T03:49:24.671Z,68.66
2023-04-29T03:50:26.529Z,69.41
2023-04-29T03:51:29.763Z,69.22
2023-04-29T03:52:40.934Z,69.54
2023-04-29T03:53:50.596Z,69.54
2023-04-29T03:54:52.351Z,69.30
2023-04-29T03:55:55.588Z,69.20
2023-04-29T03:56:57.382Z,69.24
2023-04-29T03:58:00.567Z,69.26
2023-04-29T03:59:02.760Z,69.62
2023-04-29T04:00:09.502Z,69.68
2023-04-29T04:01:23.774Z,70.17
2023-04-29T04:02:28.525Z,69.96
2023-04-29T04:03:30.678Z,69.96
2023-04-29T04:04:34.501Z,69.75
2023-04-29T04:05:36.482Z,69.66
2023-04-29T04:06:51.124Z,69.92
2023-04-29T04:07:55.663Z,69.85
2023-04-29T04:09:10.515Z,69.87
2023-04-29T04:10:12.542Z,70.00
2023-04-29T04:11:16.011Z,69.86
2023-04-29T04:12:21.499Z,70.64
2023-04-29T04:13:24.330Z,70.59
2023-04-29T04:14:26.107Z,69.74
2023-04-29T04:15:30.243Z,70.15
2023-04-29T04:16:33.398Z,69.84
2023-04-29T04:17:37.215Z,70.19
2023-04-29T04:18:39.477Z,70.07
2023-04-29T04:19:42.364Z,69.83
2023-04-29T04:20:44.163Z,69.54
2023-04-29T04:21:46.921Z,69.96
2023-04-29T04:22:48.729Z,69.98
2023-04-29T04:24:04.656Z,69.74
2023-04-29T04:25:08.373Z,70.21
2023-04-29T04:26:11.216Z,69.71
2023-04-29T04:27:27.775Z,69.63
2023-04-29T04:28:32.548Z,70.14
2023-04-29T04:29:39.906Z,70.28
2023-04-29T04:30:48.137Z,70.26
2023-04-29T04:31:50.311Z,69.66
2023-04-29T04:32:55.153Z,69.54
2023-04-29T04:33:57.748Z,70.05
2023-04-29T04:35:00.533Z,69.86
2023-04-29T04:36:02.427Z,69.42
2023-04-29T04:37:05.201Z,69.30
2023-04-29T04:38:07.826Z,69.33
2023-04-29T04:39:10.709Z,69.04
2023-04-29T04:40:14.465Z,68.97
2023-04-29T04:41:37.161Z,68.86
2023-04-29T04:42:39.186Z,68.65
2023-04-29T04:43:44.220Z,68.28
2023-04-29T04:44:59.634Z,68.39
2023-04-29T04:46:12.583Z,67.93
2023-04-29T04:47:19.372Z,67.78
2023-04-29T04:48:31.496Z,67.46
2023-04-29T04:49:34.461Z,67.00
2023-04-29T04:50:36.558Z,67.23
2023-04-29T04:51:39.275Z,66.98
2023-04-29T04:52:41.772Z,66.58
2023-04-29T04:54:13.519Z,66.61
2023-04-29T04:55:15.523Z,66.26
2023-04-29T04:56:21.997Z,66.15
2023-04-29T04:57:24.182Z,65.78
2023-04-29T04:58:27.048Z,66.23
2023-04-29T04:59:28.851Z,66.04
2023-04-29T05:00:31.766Z,65.71
2023-04-29T05:01:35.486Z,65.58
2023-04-29T05:02:38.529Z,65.41
2023-04-29T05:03:40.823Z,65.90
2023-04-29T05:04:43.892Z,66.19
2023-04-29T05:05:53.446Z,66.08
2023-04-29T05:06:56.261Z,66.01
2023-04-29T05:08:00.017Z,65.88
2023-04-29T05:09:09.029Z,66.05
2023-04-29T05:10:11.348Z,66.08
2023-04-29T05:11:27.348Z,66.36
2023-04-29T05:12:56.127Z,66.25
2023-04-29T05:13:58.067Z,66.33
2023-04-29T05:15:00.834Z,66.65
2023-04-29T05:16:06.391Z,66.72
2023-04-29T05:17:11.605Z,66.73
2023-04-29T05:18:14.517Z,66.86
2023-04-29T05:19:18.663Z,66.98
2023-04-29T05:20:21.652Z,67.00
2023-04-29T05:21:23.450Z,66.72
2023-04-29T05:22:26.448Z,67.02
2023-04-29T05:23:28.346Z,67.12
2023-04-29T05:24:31.090Z,67.08
2023-04-29T05:25:33.012Z,67.33
2023-04-29T05:26:36.373Z,67.26
2023-04-29T05:27:38.479Z,67.33
2023-04-29T05:28:44.110Z,67.37
2023-04-29T05:29:46.259Z,67.62
2023-04-29T05:30:51.671Z,67.29
2023-04-29T05:31:53.578Z,67.28
2023-04-29T05:32:57.765Z,67.54
2023-04-29T05:33:59.590Z,67.25
2023-04-29T05:35:04.246Z,67.43
2023-04-29T05:36:08.313Z,67.84
2023-04-29T05:37:11.110Z,67.66
2023-04-29T05:38:28.987Z,67.86
2023-04-29T05:39:44.044Z,67.62
2023-04-29T05:40:51.154Z,67.85
2023-04-29T05:42:19.515Z,68.50
2023-04-29T05:43:25.309Z,68.12
2023-04-29T05:44:28.883Z,68.30
2023-04-29T05:45:30.685Z,68.17
2023-04-29T05:46:33.481Z,68.53
2023-04-29T05:47:35.326Z,68.18
2023-04-29T05:48:39.450Z,68.70
2023-04-29T05:49:41.450Z,68.29
2023-04-29T05:50:45.541Z,68.54
2023-04-29T05:51:47.494Z,68.45
2023-04-29T05:52:51.809Z,68.62
2023-04-29T05:53:53.868Z,68.96
2023-04-29T05:54:56.645Z,69.38
2023-04-29T05:55:58.894Z,69.15
2023-04-29T05:57:03.243Z,69.19
2023-04-29T05:58:05.042Z,68.87
2023-04-29T05:59:08.289Z,68.98
2023-04-29T06:00:11.234Z,69.24
2023-04-29T06:01:17.402Z,69.12
2023-04-29T06:02:20.499Z,69.30
2023-04-29T06:03:24.223Z,69.79
2023-04-29T06:04:47.704Z,69.80
2023-04-29T06:06:02.762Z,69.67
2023-04-29T06:07:24.757Z,69.72
2023-04-29T06:08:40.758Z,69.66
2023-04-29T06:09:52.811Z,70.12
2023-04-29T06:10:54.863Z,70.53
2023-04-29T06:11:57.868Z,70.18
2023-04-29T06:12:59.795Z,69.99
2023-04-29T06:14:03.313Z,70.75
2023-04-29T06:15:05.849Z,70.81
2023-04-29T06:16:08.929Z,70.66
2023-04-29T06:17:12.325Z,71.44
2023-04-29T06:18:14.579Z,70.94
2023-04-29T06:19:19.272Z,71.58
2023-04-29T06:20:22.501Z,71.63
2023-04-29T06:21:25.301Z,71.85
2023-04-29T06:22:27.063Z,72.25
2023-04-29T06:23:32.124Z,72.02
2023-04-29T06:24:36.051Z,72.15
2023-04-29T06:25:39.342Z,71.96
2023-04-29T06:26:43.736Z,72.43
2023-04-29T06:27:46.685Z,72.71
2023-04-29T06:28:49.865Z,72.06
2023-04-29T06:29:52.964Z,72.91
2023-04-29T06:30:54.854Z,72.71
2023-04-29T06:31:57.869Z,72.21
2023-04-29T06:32:59.731Z,72.80
2023-04-29T06:34:02.609Z,72.83
2023-04-29T06:35:05.221Z,72.89
2023-04-29T06:36:23.415Z,72.92
2023-04-29T06:37:38.287Z,72.85
2023-04-29T06:39:10.547Z,72.49
2023-04-29T06:40:36.467Z,72.53
2023-04-29T06:42:05.657Z,72.59
2023-04-29T06:43:17.922Z,73.34
2023-04-29T06:44:20.698Z,72.80
2023-04-29T06:45:31.521Z,72.65
2023-04-29T06:46:50.603Z,72.95
2023-04-29T06:48:00.646Z,73.07
2023-04-29T06:49:14.249Z,73.29
2023-04-29T06:50:17.653Z,73.25
2023-04-29T06:51:20.441Z,73.13
2023-04-29T06:52:23.665Z,73.15
2023-04-29T06:53:26.712Z,73.32
2023-04-29T06:54:28.690Z,72.95
2023-04-29T06:55:31.442Z,72.82
2023-04-29T06:56:33.245Z,72.65
2023-04-29T06:57:36.816Z,72.91
2023-04-29T06:58:38.691Z,72.52
2023-04-29T06:59:43.607Z,72.62
2023-04-29T07:00:46.157Z,72.52
2023-04-29T07:02:51.018Z,72.62
2023-04-29T07:03:54.031Z,72.46
2023-04-29T07:04:56.075Z,72.65
2023-04-29T07:05:58.909Z,72.61
2023-04-29T07:07:00.881Z,72.83
2023-04-29T07:08:05.114Z,72.96
2023-04-29T07:09:07.391Z,73.39
2023-04-29T07:10:13.070Z,73.36
2023-04-29T07:11:14.879Z,72.95
2023-04-29T07:12:17.579Z,73.53
2023-04-29T07:13:19.353Z,73.70
2023-04-29T07:14:23.791Z,73.44
2023-04-29T07:15:26.098Z,73.09
2023-04-29T07:16:29.372Z,73.42
2023-04-29T07:17:31.414Z,73.61
2023-04-29T07:18:34.251Z,73.28
2023-04-29T07:19:36.261Z,73.16
2023-04-29T07:20:39.059Z,73.02
2023-04-29T07:21:41.557Z,72.76
2023-04-29T07:22:44.358Z,73.18
2023-04-29T07:23:47.995Z,73.43
2023-04-29T07:24:54.692Z,73.31
2023-04-29T07:25:57.559Z,72.56
2023-04-29T07:27:00.436Z,72.87
2023-04-29T07:28:02.242Z,72.95
2023-04-29T07:29:04.998Z,73.24
2023-04-29T07:30:07.675Z,72.58
2023-04-29T07:31:10.844Z,72.66
2023-04-29T07:32:13.387Z,72.70
2023-04-29T07:33:16.842Z,72.76
2023-04-29T07:34:18.608Z,73.30
2023-04-29T07:35:21.652Z,72.77
2023-04-29T07:36:23.489Z,72.61
2023-04-29T07:37:26.776Z,72.72
2023-04-29T07:38:29.600Z,72.86
2023-04-29T07:39:35.573Z,72.64
2023-04-29T07:40:38.320Z,72.60
2023-04-29T07:41:41.178Z,72.74
2023-04-29T07:42:42.945Z,72.60
2023-04-29T07:43:45.803Z,72.24
2023-04-29T07:44:47.631Z,72.56
2023-04-29T07:45:50.497Z,72.73
2023-04-29T07:46:52.381Z,72.66
2023-04-29T07:47:55.185Z,72.83
2023-04-29T07:48:58.284Z,72.54
2023-04-29T07:50:01.299Z,72.73
2023-04-29T07:51:04.083Z,72.59
2023-04-29T07:52:07.808Z,72.22
2023-04-29T07:53:09.958Z,72.67
2023-04-29T07:54:12.694Z,72.79
2023-04-29T07:55:15.974Z,72.63
2023-04-29T07:56:18.962Z,73.08
2023-04-29T07:57:21.200Z,73.02
2023-04-29T07:58:23.956Z,72.76
2023-04-29T07:59:25.735Z,73.08
2023-04-29T08:00:28.849Z,73.17
2023-04-29T08:01:30.720Z,72.90
2023-04-29T08:02:34.613Z,73.08
2023-04-29T08:03:40.610Z,73.38
2023-04-29T08:04:44.447Z,73.35
2023-04-29T08:05:51.216Z,73.04
2023-04-29T08:06:53.115Z,72.88
2023-04-29T08:07:55.884Z,73.20
2023-04-29T08:09:01.162Z,73.95
2023-04-29T08:10:04.826Z,74.14
2023-04-29T08:11:07.949Z,73.94
2023-04-29T08:12:13.522Z,73.92
2023-04-29T08:13:16.006Z,73.96
2023-04-29T08:14:18.874Z,74.69
2023-04-29T08:15:20.692Z,74.10
2023-04-29T08:16:26.069Z,74.60
2023-04-29T08:17:27.976Z,74.75
2023-04-29T08:18:30.805Z,74.64
2023-04-29T08:19:32.738Z,74.41
2023-04-29T08:20:35.701Z,74.45
2023-04-29T08:21:37.553Z,75.12
2023-04-29T08:22:40.625Z,75.02
2023-04-29T08:23:42.397Z,74.91
2023-04-29T08:24:45.277Z,74.73
2023-04-29T08:25:47.117Z,74.68
2023-04-29T08:26:51.709Z,75.19
2023-04-29T08:27:53.808Z,75.52
2023-04-29T08:28:56.606Z,75.37
2023-04-29T08:29:58.837Z,75.28
2023-04-29T08:31:01.592Z,75.81
2023-04-29T08:32:03.513Z,75.69
2023-04-29T08:33:06.682Z,75.74
2023-04-29T08:34:08.507Z,75.45
2023-04-29T08:35:11.492Z,76.17
2023-04-29T08:36:13.543Z,75.96
2023-04-29T08:37:18.407Z,75.97
2023-04-29T08:38:21.457Z,75.29
2023-04-29T08:39:23.226Z,75.04
2023-04-29T08:40:26.425Z,75.88
2023-04-29T08:41:28.218Z,76.08
2023-04-29T08:42:36.293Z,75.58
2023-04-29T08:43:40.793Z,75.80
2023-04-29T08:44:44.562Z,75.62
2023-04-29T08:45:48.516Z,76.13
2023-04-29T08:46:52.070Z,75.97
2023-04-29T08:47:54.463Z,75.88
2023-04-29T08:48:58.056Z,76.03
2023-04-29T08:50:04.017Z,75.20
2023-04-29T08:51:06.809Z,75.61
2023-04-29T08:52:08.640Z,76.15
2023-04-29T08:53:13.327Z,76.20
2023-04-29T08:54:15.182Z,75.82
2023-04-29T08:55:18.421Z,75.49
2023-04-29T08:56:21.822Z,76.19
2023-04-29T08:57:26.080Z,75.80
2023-04-29T08:58:30.042Z,75.46
2023-04-29T08:59:33.488Z,75.44
2023-04-29T09:00:36.357Z,74.98
2023-04-29T09:01:41.926Z,75.10
2023-04-29T09:02:47.660Z,73.95
2023-04-29T09:03:57.073Z,74.66
2023-04-29T09:05:06.072Z,74.72
2023-04-29T09:06:11.941Z,74.10
2023-04-29T09:07:14.069Z,74.93
2023-04-29T09:08:16.978Z,74.44
2023-04-29T09:09:20.904Z,74.32
2023-04-29T09:10:24.363Z,73.97
2023-04-29T09:11:27.369Z,74.02
2023-04-29T09:12:30.462Z,74.81
2023-04-29T09:13:33.662Z,74.41
2023-04-29T09:14:37.315Z,74.16
2023-04-29T09:15:41.327Z,73.78
2023-04-29T09:16:47.629Z,73.37
2023-04-29T09:17:49.860Z,72.98
2023-04-29T09:18:54.663Z,73.01
2023-04-29T09:19:57.496Z,72.27
2023-04-29T09:20:59.217Z,71.43
2023-04-29T09:22:02.423Z,71.48
2023-04-29T09:23:04.697Z,71.54
2023-04-29T09:24:07.474Z,70.94
2023-04-29T09:25:12.947Z,70.08
2023-04-29T09:26:15.930Z,69.40
2023-04-29T09:27:27.831Z,69.31
2023-04-29T09:28:29.762Z,69.06
2023-04-29T09:29:34.907Z,68.47
2023-04-29T09:30:45.877Z,67.98
2023-04-29T09:31:50.483Z,67.78
2023-04-29T09:33:06.696Z,66.95
2023-04-29T09:34:09.894Z,66.62
2023-04-29T09:35:22.642Z,64.65
2023-04-29T09:36:39.010Z,64.40
2023-04-29T09:37:41.847Z,65.35
2023-04-29T09:38:54.937Z,63.65
2023-04-29T09:39:57.741Z,63.89
2023-04-29T09:41:00.751Z,62.08
2023-04-29T09:42:05.761Z,62.95
2023-04-29T09:43:13.630Z,61.67
2023-04-29T09:44:16.634Z,61.83
2023-04-29T09:45:34.545Z,59.94
2023-04-29T09:46:39.148Z,61.73
2023-04-29T09:47:42.022Z,61.18
2023-04-29T09:48:43.826Z,61.23
2023-04-29T09:49:46.883Z,60.50
2023-04-29T09:51:01.595Z,59.99
2023-04-29T09:52:05.797Z,60.36
2023-04-29T09:53:09.241Z,60.19
2023-04-29T09:54:23.228Z,59.10
2023-04-29T09:55:26.699Z,59.75
2023-04-29T09:56:30.842Z,59.28
2023-04-29T09:57:42.147Z,57.16
2023-04-29T09:58:46.561Z,57.92
2023-04-29T09:59:49.312Z,58.15
2023-04-29T10:00:53.126Z,57.50
2023-04-29T10:01:57.048Z,57.61
2023-04-29T10:03:01.357Z,57.10
2023-04-29T10:04:04.816Z,56.84
2023-04-29T10:05:08.293Z,57.48
2023-04-29T10:06:10.336Z,57.38
2023-04-29T10:07:15.727Z,57.10
2023-04-29T10:08:17.925Z,56.73
2023-04-29T10:09:21.287Z,56.11
2023-04-29T10:10:23.290Z,56.18
2023-04-29T10:11:27.089Z,56.45
2023-04-29T10:12:29.863Z,55.37
2023-04-29T10:13:32.620Z,55.36
2023-04-29T10:14:40.416Z,54.60
2023-04-29T10:15:50.371Z,54.32
2023-04-29T10:17:00.525Z,54.30
2023-04-29T10:18:10.773Z,53.96
2023-04-29T10:19:16.903Z,54.39
2023-04-29T10:20:23.935Z,55.03
2023-04-29T10:21:29.219Z,54.98
2023-04-29T10:22:35.449Z,54.98
2023-04-29T10:23:37.658Z,55.28
2023-04-29T10:24:40.842Z,55.72
2023-04-29T10:25:44.764Z,55.81
2023-04-29T10:26:48.421Z,55.05
2023-04-29T10:27:53.360Z,54.51
2023-04-29T10:28:57.064Z,54.57
2023-04-29T10:30:00.067Z,54.26
2023-04-29T10:31:03.232Z,54.05
2023-04-29T10:32:08.612Z,54.13
2023-04-29T10:33:11.719Z,54.47
2023-04-29T10:34:14.836Z,54.83
2023-04-29T10:35:19.115Z,54.99
2023-04-29T10:36:22.446Z,55.00
2023-04-29T10:37:25.182Z,54.98
2023-04-29T10:38:32.040Z,55.31
2023-04-29T10:39:40.467Z,55.25
2023-04-29T10:40:46.433Z,55.34
2023-04-29T10:41:49.296Z,55.69
2023-04-29T10:42:53.261Z,55.58
2023-04-29T10:43:56.621Z,55.98
2023-04-29T10:45:18.383Z,56.58
2023-04-29T10:46:23.101Z,56.09
2023-04-29T10:47:26.315Z,55.75
2023-04-29T10:48:29.095Z,56.26
2023-04-29T10:49:34.348Z,56.16
2023-04-29T10:50:43.309Z,56.06
2023-04-29T10:51:46.679Z,56.29
2023-04-29T10:52:55.626Z,56.17
2023-04-29T10:54:07.661Z,56.64
2023-04-29T10:55:09.476Z,56.19
2023-04-29T10:56:12.182Z,56.74
2023-04-29T10:57:21.878Z,56.58
2023-04-29T10:58:37.195Z,56.52
2023-04-29T10:59:48.864Z,56.47
2023-04-29T11:00:51.540Z,56.69
2023-04-29T11:01:54.730Z,57.11
2023-04-29T11:02:59.501Z,57.08
2023-04-29T11:04:04.829Z,57.18
2023-04-29T11:05:07.938Z,57.27
2023-04-29T11:06:11.582Z,57.16
2023-04-29T11:07:27.648Z,57.43
2023-04-29T11:08:29.638Z,57.71
2023-04-29T11:09:34.033Z,58.19
2023-04-29T11:10:36.772Z,58.04
2023-04-29T11:11:52.075Z,58.26
2023-04-29T11:13:25.120Z,57.36
2023-04-29T11:14:30.369Z,57.60
2023-04-29T11:15:33.500Z,57.54
2023-04-29T11:16:37.707Z,57.74
2023-04-29T11:17:41.507Z,57.74
2023-04-29T11:19:14.728Z,57.89
2023-04-29T11:20:18.415Z,58.02
2023-04-29T11:21:20.159Z,58.31
2023-04-29T11:22:27.258Z,58.14
2023-04-29T11:23:29.099Z,57.89
2023-04-29T11:24:31.851Z,58.12
2023-04-29T11:25:36.129Z,58.61
2023-04-29T11:26:38.910Z,58.19
2023-04-29T11:27:42.623Z,58.54
2023-04-29T11:28:45.383Z,58.27
2023-04-29T11:29:48.401Z,58.24
2023-04-29T11:30:51.417Z,58.43
2023-04-29T11:32:00.043Z,58.57
2023-04-29T11:33:03.122Z,58.45
2023-04-29T11:34:05.499Z,58.44
2023-04-29T11:35:11.607Z,58.80
2023-04-29T11:36:14.276Z,58.77
2023-04-29T11:37:21.538Z,58.87
2023-04-29T11:38:24.678Z,58.92
2023-04-29T11:39:28.028Z,59.28
2023-04-29T11:40:29.790Z,59.51
2023-04-29T11:41:32.954Z,59.11
2023-04-29T11:42:35.464Z,59.06
2023-04-29T11:43:39.685Z,59.06
2023-04-29T11:44:41.457Z,59.18
2023-04-29T11:45:46.227Z,59.00
2023-04-29T11:46:49.605Z,59.42
2023-04-29T11:47:55.336Z,59.11
2023-04-29T11:48:58.522Z,59.26
2023-04-29T11:50:05.578Z,59.73
2023-04-29T11:51:08.677Z,59.41
2023-04-29T11:52:11.546Z,58.78
2023-04-29T11:53:13.422Z,58.96
2023-04-29T11:54:16.718Z,58.72
2023-04-29T11:55:18.978Z,58.94
2023-04-29T11:56:25.441Z,58.71
2023-04-29T11:57:28.306Z,58.73
2023-04-29T11:58:30.146Z,58.37
2023-04-29T11:59:33.660Z,58.51
2023-04-29T12:00:36.501Z,58.54
2023-04-29T12:01:39.315Z,58.71
2023-04-29T12:02:44.614Z,58.64
2023-04-29T12:03:47.677Z,58.43
2023-04-29T12:04:50.120Z,58.41
2023-04-29T12:05:54.111Z,58.30
2023-04-29T12:06:59.660Z,58.12
2023-04-29T12:08:01.579Z,57.83
2023-04-29T12:09:04.694Z,58.42
2023-04-29T12:10:09.771Z,58.40
2023-04-29T12:11:12.765Z,58.40
2023-04-29T12:12:15.853Z,58.54
2023-04-29T12:13:19.177Z,58.34
2023-04-29T12:14:21.075Z,58.20
2023-04-29T12:15:23.919Z,58.35
2023-04-29T12:16:26.648Z,58.43
2023-04-29T12:17:29.612Z,58.63
2023-04-29T12:18:31.432Z,57.95
2023-04-29T12:19:34.421Z,58.17
2023-04-29T12:20:36.546Z,57.77
2023-04-29T12:21:49.454Z,57.34
2023-04-29T12:22:53.452Z,57.52
2023-04-29T12:24:00.562Z,57.34
2023-04-29T12:25:04.839Z,57.34
2023-04-29T12:26:07.926Z,57.71
2023-04-29T12:27:10.313Z,57.36
2023-04-29T12:28:13.660Z,57.45
2023-04-29T12:29:15.615Z,57.44
2023-04-29T12:30:18.618Z,57.58
2023-04-29T12:31:21.159Z,57.53
2023-04-29T12:32:25.596Z,57.40
2023-04-29T12:33:29.698Z,57.02
2023-04-29T12:34:33.876Z,57.18
2023-04-29T12:35:36.211Z,57.42
2023-04-29T12:36:39.055Z,57.00
2023-04-29T12:37:40.985Z,57.19
2023-04-29T12:38:45.060Z,57.03
2023-04-29T12:39:49.948Z,57.43
2023-04-29T12:40:52.666Z,57.01
2023-04-29T12:41:56.065Z,56.96
2023-04-29T12:42:58.874Z,56.91
2023-04-29T12:44:00.649Z,57.39
2023-04-29T12:45:03.549Z,57.60
2023-04-29T12:46:08.138Z,57.74
2023-04-29T12:47:10.299Z,57.51
2023-04-29T12:48:25.305Z,57.90
2023-04-29T12:49:31.767Z,58.63
2023-04-29T12:50:38.644Z,59.01
2023-04-29T12:51:41.838Z,59.54
2023-04-29T12:52:43.620Z,59.40
2023-04-29T12:53:47.912Z,59.63
2023-04-29T12:54:49.717Z,60.11
2023-04-29T12:55:52.615Z,59.94
2023-04-29T12:56:55.585Z,59.94
2023-04-29T12:57:59.703Z,59.44
2023-04-29T12:59:08.282Z,59.29
2023-04-29T13:00:11.734Z,59.01
2023-04-29T13:01:17.690Z,59.15
2023-04-29T13:02:21.366Z,58.89
2023-04-29T13:03:23.899Z,59.16
2023-04-29T13:04:26.921Z,58.31
2023-04-29T13:05:29.076Z,58.72
2023-04-29T13:06:32.523Z,58.51
2023-04-29T13:07:34.329Z,58.58
2023-04-29T13:08:37.878Z,58.31
2023-04-29T13:09:41.783Z,58.20
2023-04-29T13:10:44.522Z,58.57
2023-04-29T13:11:46.728Z,58.40
2023-04-29T13:12:49.511Z,58.24
2023-04-29T13:13:52.674Z,58.14
2023-04-29T13:14:57.795Z,57.91
2023-04-29T13:16:01.204Z,58.30
2023-04-29T13:17:04.039Z,58.55
2023-04-29T13:18:06.983Z,58.21
2023-04-29T13:19:24.613Z,58.34
2023-04-29T13:20:32.497Z,58.38
2023-04-29T13:21:34.279Z,58.12
2023-04-29T13:22:37.400Z,57.90
2023-04-29T13:23:39.159Z,58.41
2023-04-29T13:24:43.224Z,58.07
2023-04-29T13:25:45.282Z,58.00
2023-04-29T13:26:49.582Z,57.90
2023-04-29T13:27:52.811Z,57.75
2023-04-29T13:28:55.568Z,57.81
2023-04-29T13:29:57.993Z,57.74
2023-04-29T13:31:00.891Z,58.00
2023-04-29T13:32:02.773Z,57.67
2023-04-29T13:33:12.284Z,57.82
2023-04-29T13:34:16.271Z,57.34
2023-04-29T13:35:19.149Z,57.47
2023-04-29T13:36:21.854Z,57.05
2023-04-29T13:37:24.695Z,57.09
2023-04-29T13:38:28.277Z,57.03
2023-04-29T13:39:30.362Z,56.84
2023-04-29T13:40:38.808Z,56.88
2023-04-29T13:41:45.972Z,57.05
2023-04-29T13:42:50.509Z,56.91
2023-04-29T13:43:57.978Z,56.84
2023-04-29T13:45:01.567Z,57.19
2023-04-29T13:46:04.410Z,57.82
2023-04-29T13:47:06.615Z,57.70
2023-04-29T13:48:30.189Z,57.75
2023-04-29T13:51:14.447Z,57.80
2023-04-29T13:53:30.454Z,58.01
2023-04-29T13:57:37.283Z,58.56
2023-04-29T13:59:36.268Z,58.97
2023-04-29T14:01:05.346Z,58.99
2023-04-29T14:02:23.190Z,58.98